sensor_id;sensor_type;location;lat;lon;timestamp;P1;durP1;ratioP1;P2;durP2;ratioP2
24161;SDS011;12318;51.262;7.066;2023-05-02T00:02:12;27.65;;;20.40;;
24161;SDS011;12318;51.262;7.066;2023-05-02T00:04:42;22.30;;;17.60;;
24161;SDS011;12318;51.262;7.066;2023-05-02T00:07:13;23.48;;;17.83;;
24161;SDS011;12318;51.262;7.066;2023-05-02T00:09:38;26.17;;;18.90;;
24161;SDS011;12318;51.262;7.066;2023-05-02T00:12:04;20.85;;;16.65;;
24161;SDS011;12318;51.262;7.066;2023-05-02T00:14:30;22.65;;;17.38;;
24161;SDS011;12318;51.262;7.066;2023-05-02T00:16:57;23.05;;;16.92;;
24161;SDS011;12318;51.262;7.066;2023-05-02T00:19:22;22.63;;;18.05;;
24161;SDS011;12318;51.262;7.066;2023-05-02T00:21:48;29.08;;;22.13;;
24161;SDS011;12318;51.262;7.066;2023-05-02T00:24:17;24.95;;;18.77;;
24161;SDS011;12318;51.262;7.066;2023-05-02T00:26:43;26.30;;;20.80;;
24161;SDS011;12318;51.262;7.066;2023-05-02T00:29:08;28.10;;;20.27;;
24161;SDS011;12318;51.262;7.066;2023-05-02T00:31:34;29.27;;;22.90;;
24161;SDS011;12318;51.262;7.066;2023-05-02T00:34:03;29.75;;;21.50;;
24161;SDS011;12318;51.262;7.066;2023-05-02T00:36:29;35.95;;;24.23;;
24161;SDS011;12318;51.262;7.066;2023-05-02T00:38:58;26.58;;;20.10;;
24161;SDS011;12318;51.262;7.066;2023-05-02T00:41:23;36.55;;;25.48;;
24161;SDS011;12318;51.262;7.066;2023-05-02T00:43:50;41.63;;;30.33;;
24161;SDS011;12318;51.262;7.066;2023-05-02T00:46:16;39.28;;;28.27;;
24161;SDS011;12318;51.262;7.066;2023-05-02T00:48:41;45.28;;;30.65;;
24161;SDS011;12318;51.262;7.066;2023-05-02T00:51:09;51.00;;;35.05;;
24161;SDS011;12318;51.262;7.066;2023-05-02T00:53:37;46.75;;;33.95;;
24161;SDS011;12318;51.262;7.066;2023-05-02T00:56:04;49.53;;;35.58;;
24161;SDS011;12318;51.262;7.066;2023-05-02T00:58:30;52.17;;;37.97;;
24161;SDS011;12318;51.262;7.066;2023-05-02T01:01:04;55.80;;;37.30;;
24161;SDS011;12318;51.262;7.066;2023-05-02T01:03:43;47.45;;;36.25;;
24161;SDS011;12318;51.262;7.066;2023-05-02T01:06:23;50.17;;;36.75;;
24161;SDS011;12318;51.262;7.066;2023-05-02T01:11:49;61.20;;;40.05;;
24161;SDS011;12318;51.262;7.066;2023-05-02T01:14:29;60.05;;;40.47;;
24161;SDS011;12318;51.262;7.066;2023-05-02T01:17:04;54.05;;;36.95;;
24161;SDS011;12318;51.262;7.066;2023-05-02T01:19:34;41.17;;;30.52;;
24161;SDS011;12318;51.262;7.066;2023-05-02T01:22:09;54.90;;;38.30;;
24161;SDS011;12318;51.262;7.066;2023-05-02T01:30:08;42.17;;;31.13;;
24161;SDS011;12318;51.262;7.066;2023-05-02T01:32:36;56.10;;;39.17;;
24161;SDS011;12318;51.262;7.066;2023-05-02T01:35:07;41.57;;;30.23;;
24161;SDS011;12318;51.262;7.066;2023-05-02T01:37:35;49.92;;;35.60;;
24161;SDS011;12318;51.262;7.066;2023-05-02T01:40:03;39.35;;;30.95;;
24161;SDS011;12318;51.262;7.066;2023-05-02T01:42:35;61.95;;;41.10;;
24161;SDS011;12318;51.262;7.066;2023-05-02T01:45:03;77.25;;;49.08;;
24161;SDS011;12318;51.262;7.066;2023-05-02T01:47:32;87.10;;;53.05;;
24161;SDS011;12318;51.262;7.066;2023-05-02T01:50:03;89.20;;;54.05;;
24161;SDS011;12318;51.262;7.066;2023-05-02T01:52:35;101.72;;;58.53;;
24161;SDS011;12318;51.262;7.066;2023-05-02T01:55:02;110.57;;;63.25;;
24161;SDS011;12318;51.262;7.066;2023-05-02T01:57:31;118.63;;;62.92;;
24161;SDS011;12318;51.262;7.066;2023-05-02T01:59:59;124.22;;;68.82;;
24161;SDS011;12318;51.262;7.066;2023-05-02T02:02:35;134.93;;;71.63;;
24161;SDS011;12318;51.262;7.066;2023-05-02T02:05:03;136.35;;;71.32;;
24161;SDS011;12318;51.262;7.066;2023-05-02T02:07:31;142.32;;;75.47;;
24161;SDS011;12318;51.262;7.066;2023-05-02T02:09:57;144.93;;;76.38;;
24161;SDS011;12318;51.262;7.066;2023-05-02T02:20:29;166.23;;;76.93;;
24161;SDS011;12318;51.262;7.066;2023-05-02T02:22:56;161.68;;;76.80;;
24161;SDS011;12318;51.262;7.066;2023-05-02T02:25:25;158.13;;;74.70;;
24161;SDS011;12318;51.262;7.066;2023-05-02T02:27:52;148.43;;;72.03;;
24161;SDS011;12318;51.262;7.066;2023-05-02T02:30:18;149.30;;;75.00;;
24161;SDS011;12318;51.262;7.066;2023-05-02T02:32:44;151.70;;;71.68;;
24161;SDS011;12318;51.262;7.066;2023-05-02T02:35:09;132.27;;;66.68;;
24161;SDS011;12318;51.262;7.066;2023-05-02T02:37:57;137.73;;;66.20;;
24161;SDS011;12318;51.262;7.066;2023-05-02T02:40:30;138.10;;;64.47;;
24161;SDS011;12318;51.262;7.066;2023-05-02T02:43:35;135.93;;;65.32;;
24161;SDS011;12318;51.262;7.066;2023-05-02T02:49:11;126.82;;;61.78;;
24161;SDS011;12318;51.262;7.066;2023-05-02T02:52:01;129.52;;;64.03;;
24161;SDS011;12318;51.262;7.066;2023-05-02T02:54:45;122.20;;;61.15;;
24161;SDS011;12318;51.262;7.066;2023-05-02T03:02:24;130.40;;;63.60;;
24161;SDS011;12318;51.262;7.066;2023-05-02T03:04:53;140.20;;;67.03;;
24161;SDS011;12318;51.262;7.066;2023-05-02T03:07:21;131.40;;;66.22;;
24161;SDS011;12318;51.262;7.066;2023-05-02T03:09:47;133.40;;;66.97;;
24161;SDS011;12318;51.262;7.066;2023-05-02T03:12:13;133.30;;;65.35;;
24161;SDS011;12318;51.262;7.066;2023-05-02T03:14:39;139.68;;;66.65;;
24161;SDS011;12318;51.262;7.066;2023-05-02T03:17:05;100.03;;;52.85;;
24161;SDS011;12318;51.262;7.066;2023-05-02T03:19:34;131.30;;;61.63;;
24161;SDS011;12318;51.262;7.066;2023-05-02T03:22:01;118.65;;;57.58;;
24161;SDS011;12318;51.262;7.066;2023-05-02T03:24:30;110.53;;;52.90;;
24161;SDS011;12318;51.262;7.066;2023-05-02T03:26:56;89.55;;;46.90;;
24161;SDS011;12318;51.262;7.066;2023-05-02T03:29:25;96.80;;;48.33;;
24161;SDS011;12318;51.262;7.066;2023-05-02T03:32:06;99.68;;;49.72;;
24161;SDS011;12318;51.262;7.066;2023-05-02T03:34:35;87.40;;;46.20;;
24161;SDS011;12318;51.262;7.066;2023-05-02T03:37:01;94.60;;;46.83;;
24161;SDS011;12318;51.262;7.066;2023-05-02T03:39:29;78.03;;;41.58;;
24161;SDS011;12318;51.262;7.066;2023-05-02T03:41:57;93.15;;;45.20;;
24161;SDS011;12318;51.262;7.066;2023-05-02T03:44:23;91.82;;;46.05;;
24161;SDS011;12318;51.262;7.066;2023-05-02T03:46:49;92.65;;;46.90;;
24161;SDS011;12318;51.262;7.066;2023-05-02T03:49:16;92.65;;;48.53;;
24161;SDS011;12318;51.262;7.066;2023-05-02T03:51:43;91.82;;;47.05;;
24161;SDS011;12318;51.262;7.066;2023-05-02T03:54:09;76.97;;;42.55;;
24161;SDS011;12318;51.262;7.066;2023-05-02T03:56:35;93.65;;;48.10;;
24161;SDS011;12318;51.262;7.066;2023-05-02T03:59:01;94.88;;;46.45;;
24161;SDS011;12318;51.262;7.066;2023-05-02T04:01:28;91.80;;;46.15;;
24161;SDS011;12318;51.262;7.066;2023-05-02T04:03:53;91.32;;;47.05;;
24161;SDS011;12318;51.262;7.066;2023-05-02T04:06:20;67.10;;;39.60;;
24161;SDS011;12318;51.262;7.066;2023-05-02T04:08:45;89.97;;;46.88;;
24161;SDS011;12318;51.262;7.066;2023-05-02T04:11:11;76.68;;;41.85;;
24161;SDS011;12318;51.262;7.066;2023-05-02T04:13:39;99.10;;;46.30;;
24161;SDS011;12318;51.262;7.066;2023-05-02T04:16:05;88.28;;;44.72;;
24161;SDS011;12318;51.262;7.066;2023-05-02T04:18:31;92.60;;;44.92;;
24161;SDS011;12318;51.262;7.066;2023-05-02T04:20:56;89.63;;;41.85;;
24161;SDS011;12318;51.262;7.066;2023-05-02T04:23:22;84.25;;;43.17;;
24161;SDS011;12318;51.262;7.066;2023-05-02T04:25:52;67.43;;;37.75;;
24161;SDS011;12318;51.262;7.066;2023-05-02T04:28:21;70.35;;;39.00;;
24161;SDS011;12318;51.262;7.066;2023-05-02T04:30:49;69.25;;;37.88;;
24161;SDS011;12318;51.262;7.066;2023-05-02T04:33:15;72.63;;;39.97;;
24161;SDS011;12318;51.262;7.066;2023-05-02T04:35:42;75.38;;;40.20;;
24161;SDS011;12318;51.262;7.066;2023-05-02T04:38:08;80.75;;;41.22;;
24161;SDS011;12318;51.262;7.066;2023-05-02T04:40:34;79.60;;;42.00;;
24161;SDS011;12318;51.262;7.066;2023-05-02T04:43:00;81.82;;;42.28;;
24161;SDS011;12318;51.262;7.066;2023-05-02T04:45:26;88.78;;;42.80;;
24161;SDS011;12318;51.262;7.066;2023-05-02T04:47:55;76.57;;;41.15;;
24161;SDS011;12318;51.262;7.066;2023-05-02T04:50:21;77.88;;;40.40;;
24161;SDS011;12318;51.262;7.066;2023-05-02T04:52:49;80.80;;;39.97;;
24161;SDS011;12318;51.262;7.066;2023-05-02T04:55:16;71.80;;;38.58;;
24161;SDS011;12318;51.262;7.066;2023-05-02T04:57:41;71.93;;;33.40;;
24161;SDS011;12318;51.262;7.066;2023-05-02T05:00:07;68.93;;;34.28;;
24161;SDS011;12318;51.262;7.066;2023-05-02T05:02:36;63.67;;;32.88;;
24161;SDS011;12318;51.262;7.066;2023-05-02T05:05:03;62.58;;;31.10;;
24161;SDS011;12318;51.262;7.066;2023-05-02T05:07:29;61.17;;;29.55;;
24161;SDS011;12318;51.262;7.066;2023-05-02T05:09:55;57.30;;;29.13;;
24161;SDS011;12318;51.262;7.066;2023-05-02T05:12:21;57.47;;;28.83;;
24161;SDS011;12318;51.262;7.066;2023-05-02T05:14:47;61.20;;;29.42;;
24161;SDS011;12318;51.262;7.066;2023-05-02T05:17:14;55.35;;;28.10;;
24161;SDS011;12318;51.262;7.066;2023-05-02T05:19:40;55.65;;;28.65;;
24161;SDS011;12318;51.262;7.066;2023-05-02T05:22:06;55.50;;;27.90;;
24161;SDS011;12318;51.262;7.066;2023-05-02T05:24:32;57.53;;;27.30;;
24161;SDS011;12318;51.262;7.066;2023-05-02T05:26:58;61.42;;;29.05;;
24161;SDS011;12318;51.262;7.066;2023-05-02T05:29:24;64.72;;;30.63;;
24161;SDS011;12318;51.262;7.066;2023-05-02T05:31:52;57.78;;;28.15;;
24161;SDS011;12318;51.262;7.066;2023-05-02T05:34:21;68.65;;;30.27;;
24161;SDS011;12318;51.262;7.066;2023-05-02T05:36:49;67.15;;;30.65;;
24161;SDS011;12318;51.262;7.066;2023-05-02T05:39:15;72.93;;;31.33;;
24161;SDS011;12318;51.262;7.066;2023-05-02T05:41:40;61.65;;;30.40;;
24161;SDS011;12318;51.262;7.066;2023-05-02T05:44:07;67.85;;;31.27;;
24161;SDS011;12318;51.262;7.066;2023-05-02T05:46:33;89.20;;;34.35;;
24161;SDS011;12318;51.262;7.066;2023-05-02T05:49:03;74.18;;;33.83;;
24161;SDS011;12318;51.262;7.066;2023-05-02T05:51:30;60.38;;;31.08;;
24161;SDS011;12318;51.262;7.066;2023-05-02T05:53:59;81.63;;;35.45;;
24161;SDS011;12318;51.262;7.066;2023-05-02T05:56:28;85.85;;;36.83;;
24161;SDS011;12318;51.262;7.066;2023-05-02T05:58:54;69.20;;;33.97;;
24161;SDS011;12318;51.262;7.066;2023-05-02T06:01:26;77.28;;;36.55;;
24161;SDS011;12318;51.262;7.066;2023-05-02T06:03:54;60.65;;;32.97;;
24161;SDS011;12318;51.262;7.066;2023-05-02T06:06:20;60.53;;;32.05;;
24161;SDS011;12318;51.262;7.066;2023-05-02T06:15:07;53.60;;;29.52;;
24161;SDS011;12318;51.262;7.066;2023-05-02T06:17:35;43.22;;;25.38;;
24161;SDS011;12318;51.262;7.066;2023-05-02T06:20:04;38.00;;;22.80;;
24161;SDS011;12318;51.262;7.066;2023-05-02T06:22:30;29.02;;;16.83;;
24161;SDS011;12318;51.262;7.066;2023-05-02T06:24:56;30.17;;;17.75;;
24161;SDS011;12318;51.262;7.066;2023-05-02T06:27:22;27.33;;;16.42;;
24161;SDS011;12318;51.262;7.066;2023-05-02T06:29:51;27.45;;;15.80;;
24161;SDS011;12318;51.262;7.066;2023-05-02T06:32:20;27.25;;;16.23;;
24161;SDS011;12318;51.262;7.066;2023-05-02T06:34:46;25.40;;;14.55;;
24161;SDS011;12318;51.262;7.066;2023-05-02T06:37:14;24.90;;;11.05;;
24161;SDS011;12318;51.262;7.066;2023-05-02T06:39:40;21.67;;;10.32;;
24161;SDS011;12318;51.262;7.066;2023-05-02T06:42:06;18.50;;;9.45;;
24161;SDS011;12318;51.262;7.066;2023-05-02T06:44:32;21.42;;;10.02;;
24161;SDS011;12318;51.262;7.066;2023-05-02T06:47:00;15.27;;;8.85;;
24161;SDS011;12318;51.262;7.066;2023-05-02T06:49:30;20.63;;;10.25;;
24161;SDS011;12318;51.262;7.066;2023-05-02T06:51:58;14.18;;;7.85;;
24161;SDS011;12318;51.262;7.066;2023-05-02T06:54:24;14.98;;;7.63;;
24161;SDS011;12318;51.262;7.066;2023-05-02T06:56:53;11.32;;;7.03;;
24161;SDS011;12318;51.262;7.066;2023-05-02T06:59:19;14.85;;;7.03;;
24161;SDS011;12318;51.262;7.066;2023-05-02T07:01:44;11.05;;;6.15;;
24161;SDS011;12318;51.262;7.066;2023-05-02T07:04:10;12.05;;;6.30;;
24161;SDS011;12318;51.262;7.066;2023-05-02T07:06:41;15.17;;;6.73;;
24161;SDS011;12318;51.262;7.066;2023-05-02T07:09:15;14.18;;;5.75;;
24161;SDS011;12318;51.262;7.066;2023-05-02T07:11:40;9.43;;;4.85;;
24161;SDS011;12318;51.262;7.066;2023-05-02T07:14:06;11.50;;;5.60;;
24161;SDS011;12318;51.262;7.066;2023-05-02T07:16:32;11.80;;;4.95;;
24161;SDS011;12318;51.262;7.066;2023-05-02T07:18:58;10.75;;;4.90;;
24161;SDS011;12318;51.262;7.066;2023-05-02T07:21:25;10.25;;;3.95;;
24161;SDS011;12318;51.262;7.066;2023-05-02T07:23:51;7.55;;;4.13;;
24161;SDS011;12318;51.262;7.066;2023-05-02T07:26:19;11.80;;;5.20;;
24161;SDS011;12318;51.262;7.066;2023-05-02T07:28:51;11.75;;;5.20;;
24161;SDS011;12318;51.262;7.066;2023-05-02T07:31:20;9.18;;;4.35;;
24161;SDS011;12318;51.262;7.066;2023-05-02T07:33:52;9.05;;;4.38;;
24161;SDS011;12318;51.262;7.066;2023-05-02T07:36:17;11.20;;;4.70;;
24161;SDS011;12318;51.262;7.066;2023-05-02T07:38:52;7.68;;;4.10;;
24161;SDS011;12318;51.262;7.066;2023-05-02T07:41:18;8.52;;;3.90;;
24161;SDS011;12318;51.262;7.066;2023-05-02T07:43:43;9.73;;;3.97;;
24161;SDS011;12318;51.262;7.066;2023-05-02T07:46:09;9.65;;;3.70;;
24161;SDS011;12318;51.262;7.066;2023-05-02T07:48:35;13.38;;;4.22;;
24161;SDS011;12318;51.262;7.066;2023-05-02T07:51:04;11.55;;;3.80;;
24161;SDS011;12318;51.262;7.066;2023-05-02T07:53:33;11.18;;;4.68;;
24161;SDS011;12318;51.262;7.066;2023-05-02T07:55:59;10.65;;;4.40;;
24161;SDS011;12318;51.262;7.066;2023-05-02T08:01:47;10.10;;;3.88;;
24161;SDS011;12318;51.262;7.066;2023-05-02T08:04:23;7.72;;;4.25;;
24161;SDS011;12318;51.262;7.066;2023-05-02T08:06:58;13.70;;;4.95;;
24161;SDS011;12318;51.262;7.066;2023-05-02T08:09:30;13.68;;;5.45;;
24161;SDS011;12318;51.262;7.066;2023-05-02T08:11:58;8.52;;;5.30;;
24161;SDS011;12318;51.262;7.066;2023-05-02T08:14:27;10.30;;;4.75;;
24161;SDS011;12318;51.262;7.066;2023-05-02T08:16:55;7.70;;;3.58;;
24161;SDS011;12318;51.262;7.066;2023-05-02T08:19:21;4.93;;;2.72;;
24161;SDS011;12318;51.262;7.066;2023-05-02T08:21:47;8.13;;;2.97;;
24161;SDS011;12318;51.262;7.066;2023-05-02T08:24:13;5.78;;;2.90;;
24161;SDS011;12318;51.262;7.066;2023-05-02T08:26:39;6.72;;;3.33;;
24161;SDS011;12318;51.262;7.066;2023-05-02T08:29:05;7.55;;;3.40;;
24161;SDS011;12318;51.262;7.066;2023-05-02T08:34:33;8.65;;;4.40;;
24161;SDS011;12318;51.262;7.066;2023-05-02T08:36:59;6.90;;;5.00;;
24161;SDS011;12318;51.262;7.066;2023-05-02T08:39:25;8.18;;;5.45;;
24161;SDS011;12318;51.262;7.066;2023-05-02T08:41:50;7.32;;;5.63;;
24161;SDS011;12318;51.262;7.066;2023-05-02T08:44:16;10.15;;;6.65;;
24161;SDS011;12318;51.262;7.066;2023-05-02T08:46:42;11.95;;;7.03;;
24161;SDS011;12318;51.262;7.066;2023-05-02T08:49:10;12.05;;;7.70;;
24161;SDS011;12318;51.262;7.066;2023-05-02T08:51:37;13.57;;;8.38;;
24161;SDS011;12318;51.262;7.066;2023-05-02T08:54:05;8.75;;;7.38;;
24161;SDS011;12318;51.262;7.066;2023-05-02T08:56:34;10.75;;;8.10;;
24161;SDS011;12318;51.262;7.066;2023-05-02T08:59:01;9.73;;;6.78;;
24161;SDS011;12318;51.262;7.066;2023-05-02T09:01:30;10.00;;;7.38;;
24161;SDS011;12318;51.262;7.066;2023-05-02T09:03:59;8.77;;;6.40;;
24161;SDS011;12318;51.262;7.066;2023-05-02T09:06:25;7.57;;;5.85;;
24161;SDS011;12318;51.262;7.066;2023-05-02T09:08:58;8.95;;;5.30;;
24161;SDS011;12318;51.262;7.066;2023-05-02T09:11:24;6.30;;;4.43;;
24161;SDS011;12318;51.262;7.066;2023-05-02T09:13:50;8.45;;;4.30;;
24161;SDS011;12318;51.262;7.066;2023-05-02T09:16:21;9.40;;;3.72;;
24161;SDS011;12318;51.262;7.066;2023-05-02T09:18:53;8.38;;;4.43;;
24161;SDS011;12318;51.262;7.066;2023-05-02T09:21:21;8.05;;;4.53;;
24161;SDS011;12318;51.262;7.066;2023-05-02T09:23:53;8.90;;;4.00;;
24161;SDS011;12318;51.262;7.066;2023-05-02T09:26:25;9.52;;;4.68;;
24161;SDS011;12318;51.262;7.066;2023-05-02T09:28:54;10.07;;;5.30;;
24161;SDS011;12318;51.262;7.066;2023-05-02T09:31:27;8.63;;;5.95;;
24161;SDS011;12318;51.262;7.066;2023-05-02T09:34:28;7.68;;;5.93;;
24161;SDS011;12318;51.262;7.066;2023-05-02T09:37:54;10.43;;;5.95;;
24161;SDS011;12318;51.262;7.066;2023-05-02T09:40:32;13.50;;;6.40;;
24161;SDS011;12318;51.262;7.066;2023-05-02T09:43:18;11.07;;;7.47;;
24161;SDS011;12318;51.262;7.066;2023-05-02T09:46:07;11.07;;;8.13;;
24161;SDS011;12318;51.262;7.066;2023-05-02T09:48:50;11.60;;;10.18;;
24161;SDS011;12318;51.262;7.066;2023-05-02T09:51:16;9.82;;;8.38;;
24161;SDS011;12318;51.262;7.066;2023-05-02T09:53:46;13.95;;;7.57;;
24161;SDS011;12318;51.262;7.066;2023-05-02T09:56:16;11.93;;;7.22;;
24161;SDS011;12318;51.262;7.066;2023-05-02T09:58:54;11.02;;;7.13;;
24161;SDS011;12318;51.262;7.066;2023-05-02T10:01:41;9.63;;;5.82;;
24161;SDS011;12318;51.262;7.066;2023-05-02T10:04:15;9.48;;;5.28;;
24161;SDS011;12318;51.262;7.066;2023-05-02T10:06:53;10.00;;;6.13;;
24161;SDS011;12318;51.262;7.066;2023-05-02T10:09:24;12.85;;;6.13;;
24161;SDS011;12318;51.262;7.066;2023-05-02T10:11:52;12.43;;;5.80;;
24161;SDS011;12318;51.262;7.066;2023-05-02T10:14:19;12.15;;;5.38;;
24161;SDS011;12318;51.262;7.066;2023-05-02T10:22:09;11.45;;;5.07;;
24161;SDS011;12318;51.262;7.066;2023-05-02T10:24:37;9.57;;;5.93;;
24161;SDS011;12318;51.262;7.066;2023-05-02T10:27:03;8.10;;;5.40;;
24161;SDS011;12318;51.262;7.066;2023-05-02T10:29:30;16.42;;;6.05;;
24161;SDS011;12318;51.262;7.066;2023-05-02T10:31:56;9.88;;;6.35;;
24161;SDS011;12318;51.262;7.066;2023-05-02T10:34:25;11.07;;;5.90;;
24161;SDS011;12318;51.262;7.066;2023-05-02T10:36:53;11.63;;;5.10;;
24161;SDS011;12318;51.262;7.066;2023-05-02T10:39:20;12.80;;;5.30;;
24161;SDS011;12318;51.262;7.066;2023-05-02T10:41:48;10.07;;;5.07;;
24161;SDS011;12318;51.262;7.066;2023-05-02T10:44:30;9.18;;;4.68;;
24161;SDS011;12318;51.262;7.066;2023-05-02T10:46:59;7.63;;;3.42;;
24161;SDS011;12318;51.262;7.066;2023-05-02T10:49:25;11.75;;;3.83;;
24161;SDS011;12318;51.262;7.066;2023-05-02T10:51:56;7.80;;;3.17;;
24161;SDS011;12318;51.262;7.066;2023-05-02T10:54:25;9.93;;;3.35;;
24161;SDS011;12318;51.262;7.066;2023-05-02T10:59:38;8.25;;;2.70;;
24161;SDS011;12318;51.262;7.066;2023-05-02T11:05:06;12.68;;;3.25;;
24161;SDS011;12318;51.262;7.066;2023-05-02T11:10:59;9.68;;;3.30;;
24161;SDS011;12318;51.262;7.066;2023-05-02T11:14:04;10.00;;;3.50;;
24161;SDS011;12318;51.262;7.066;2023-05-02T11:17:04;6.95;;;3.22;;
24161;SDS011;12318;51.262;7.066;2023-05-02T11:19:27;9.05;;;4.05;;
24161;SDS011;12318;51.262;7.066;2023-05-02T11:24:43;10.65;;;4.03;;
24161;SDS011;12318;51.262;7.066;2023-05-02T11:35:22;11.02;;;6.03;;
24161;SDS011;12318;51.262;7.066;2023-05-02T11:37:55;14.98;;;6.63;;
24161;SDS011;12318;51.262;7.066;2023-05-02T11:40:53;11.68;;;6.10;;
24161;SDS011;12318;51.262;7.066;2023-05-02T11:43:26;12.32;;;5.28;;
24161;SDS011;12318;51.262;7.066;2023-05-02T11:46:09;17.90;;;4.25;;
24161;SDS011;12318;51.262;7.066;2023-05-02T11:48:38;15.77;;;4.40;;
24161;SDS011;12318;51.262;7.066;2023-05-02T11:51:05;14.82;;;4.20;;
24161;SDS011;12318;51.262;7.066;2023-05-02T11:53:31;13.23;;;4.28;;
24161;SDS011;12318;51.262;7.066;2023-05-02T11:55:59;10.45;;;3.15;;
24161;SDS011;12318;51.262;7.066;2023-05-02T11:58:27;13.95;;;3.85;;
24161;SDS011;12318;51.262;7.066;2023-05-02T12:00:56;11.25;;;3.42;;
24161;SDS011;12318;51.262;7.066;2023-05-02T12:03:31;11.50;;;3.20;;
24161;SDS011;12318;51.262;7.066;2023-05-02T12:06:16;12.27;;;3.80;;
24161;SDS011;12318;51.262;7.066;2023-05-02T12:08:43;13.82;;;3.85;;
24161;SDS011;12318;51.262;7.066;2023-05-02T12:11:20;13.35;;;3.60;;
24161;SDS011;12318;51.262;7.066;2023-05-02T12:13:56;14.95;;;4.28;;
24161;SDS011;12318;51.262;7.066;2023-05-02T12:18:50;13.40;;;4.90;;
24161;SDS011;12318;51.262;7.066;2023-05-02T12:21:21;17.42;;;4.78;;
24161;SDS011;12318;51.262;7.066;2023-05-02T12:23:46;13.27;;;4.68;;
24161;SDS011;12318;51.262;7.066;2023-05-02T12:26:16;13.30;;;4.88;;
24161;SDS011;12318;51.262;7.066;2023-05-02T12:28:49;18.45;;;5.10;;
24161;SDS011;12318;51.262;7.066;2023-05-02T12:31:22;13.80;;;5.40;;
24161;SDS011;12318;51.262;7.066;2023-05-02T12:33:53;9.68;;;4.53;;
24161;SDS011;12318;51.262;7.066;2023-05-02T12:36:30;12.90;;;5.07;;
24161;SDS011;12318;51.262;7.066;2023-05-02T12:39:02;12.43;;;4.80;;
24161;SDS011;12318;51.262;7.066;2023-05-02T12:41:39;10.93;;;5.20;;
24161;SDS011;12318;51.262;7.066;2023-05-02T12:44:10;17.95;;;5.60;;
24161;SDS011;12318;51.262;7.066;2023-05-02T12:46:35;13.70;;;4.65;;
24161;SDS011;12318;51.262;7.066;2023-05-02T12:49:05;16.33;;;5.68;;
24161;SDS011;12318;51.262;7.066;2023-05-02T12:51:35;13.13;;;6.75;;
24161;SDS011;12318;51.262;7.066;2023-05-02T12:54:07;16.50;;;7.78;;
24161;SDS011;12318;51.262;7.066;2023-05-02T12:56:39;14.68;;;7.28;;
24161;SDS011;12318;51.262;7.066;2023-05-02T12:59:07;10.48;;;7.32;;
24161;SDS011;12318;51.262;7.066;2023-05-02T13:01:42;14.15;;;8.13;;
24161;SDS011;12318;51.262;7.066;2023-05-02T13:04:10;16.30;;;8.23;;
24161;SDS011;12318;51.262;7.066;2023-05-02T13:06:36;24.48;;;8.82;;
24161;SDS011;12318;51.262;7.066;2023-05-02T13:09:02;12.13;;;7.50;;
24161;SDS011;12318;51.262;7.066;2023-05-02T13:11:28;16.10;;;7.45;;
24161;SDS011;12318;51.262;7.066;2023-05-02T13:13:54;14.65;;;7.10;;
24161;SDS011;12318;51.262;7.066;2023-05-02T13:16:20;14.25;;;5.50;;
24161;SDS011;12318;51.262;7.066;2023-05-02T13:18:46;13.35;;;5.45;;
24161;SDS011;12318;51.262;7.066;2023-05-02T13:21:14;10.85;;;5.63;;
24161;SDS011;12318;51.262;7.066;2023-05-02T13:23:40;17.17;;;5.10;;
24161;SDS011;12318;51.262;7.066;2023-05-02T13:26:08;11.25;;;4.40;;
24161;SDS011;12318;51.262;7.066;2023-05-02T13:28:33;13.05;;;3.47;;
24161;SDS011;12318;51.262;7.066;2023-05-02T13:31:01;7.18;;;3.05;;
24161;SDS011;12318;51.262;7.066;2023-05-02T13:33:27;8.73;;;2.90;;
24161;SDS011;12318;51.262;7.066;2023-05-02T13:35:52;8.15;;;2.80;;
24161;SDS011;12318;51.262;7.066;2023-05-02T13:38:18;10.85;;;3.58;;
24161;SDS011;12318;51.262;7.066;2023-05-02T13:40:44;10.60;;;3.28;;
24161;SDS011;12318;51.262;7.066;2023-05-02T13:43:10;12.30;;;3.17;;
24161;SDS011;12318;51.262;7.066;2023-05-02T13:45:35;9.23;;;2.65;;
24161;SDS011;12318;51.262;7.066;2023-05-02T13:48:01;11.40;;;2.45;;
24161;SDS011;12318;51.262;7.066;2023-05-02T13:50:27;8.00;;;2.50;;
24161;SDS011;12318;51.262;7.066;2023-05-02T13:52:53;8.68;;;2.40;;
24161;SDS011;12318;51.262;7.066;2023-05-02T13:55:18;9.38;;;2.95;;
24161;SDS011;12318;51.262;7.066;2023-05-02T13:57:44;10.95;;;3.13;;
24161;SDS011;12318;51.262;7.066;2023-05-02T14:00:10;7.70;;;2.28;;
24161;SDS011;12318;51.262;7.066;2023-05-02T14:02:37;7.47;;;2.75;;
24161;SDS011;12318;51.262;7.066;2023-05-02T14:05:03;6.88;;;2.40;;
24161;SDS011;12318;51.262;7.066;2023-05-02T14:07:29;7.90;;;2.30;;
24161;SDS011;12318;51.262;7.066;2023-05-02T14:09:54;7.90;;;2.55;;
24161;SDS011;12318;51.262;7.066;2023-05-02T14:12:20;6.80;;;2.58;;
24161;SDS011;12318;51.262;7.066;2023-05-02T14:14:46;6.72;;;2.75;;
24161;SDS011;12318;51.262;7.066;2023-05-02T14:17:12;6.43;;;2.50;;
24161;SDS011;12318;51.262;7.066;2023-05-02T14:19:38;7.15;;;2.55;;
24161;SDS011;12318;51.262;7.066;2023-05-02T14:22:03;7.00;;;2.70;;
24161;SDS011;12318;51.262;7.066;2023-05-02T14:24:29;5.15;;;2.10;;
24161;SDS011;12318;51.262;7.066;2023-05-02T14:26:55;9.00;;;2.63;;
24161;SDS011;12318;51.262;7.066;2023-05-02T14:29:22;7.40;;;2.15;;
24161;SDS011;12318;51.262;7.066;2023-05-02T14:31:48;7.03;;;2.33;;
24161;SDS011;12318;51.262;7.066;2023-05-02T14:34:13;5.85;;;2.20;;
24161;SDS011;12318;51.262;7.066;2023-05-02T14:36:39;6.28;;;2.60;;
24161;SDS011;12318;51.262;7.066;2023-05-02T14:39:05;8.18;;;2.53;;
24161;SDS011;12318;51.262;7.066;2023-05-02T14:41:31;7.78;;;2.72;;
24161;SDS011;12318;51.262;7.066;2023-05-02T14:43:57;4.30;;;2.30;;
24161;SDS011;12318;51.262;7.066;2023-05-02T14:46:23;10.25;;;2.47;;
24161;SDS011;12318;51.262;7.066;2023-05-02T14:48:49;6.07;;;2.30;;
24161;SDS011;12318;51.262;7.066;2023-05-02T14:51:14;11.25;;;2.33;;
24161;SDS011;12318;51.262;7.066;2023-05-02T14:53:40;8.48;;;2.53;;
24161;SDS011;12318;51.262;7.066;2023-05-02T14:56:10;7.93;;;2.50;;
24161;SDS011;12318;51.262;7.066;2023-05-02T14:58:37;4.60;;;2.40;;
24161;SDS011;12318;51.262;7.066;2023-05-02T15:01:06;5.93;;;2.70;;
24161;SDS011;12318;51.262;7.066;2023-05-02T15:03:42;9.43;;;2.53;;
24161;SDS011;12318;51.262;7.066;2023-05-02T15:06:30;6.15;;;2.58;;
24161;SDS011;12318;51.262;7.066;2023-05-02T15:11:56;6.00;;;2.78;;
24161;SDS011;12318;51.262;7.066;2023-05-02T15:14:28;8.23;;;2.88;;
24161;SDS011;12318;51.262;7.066;2023-05-02T15:17:13;9.13;;;3.40;;
24161;SDS011;12318;51.262;7.066;2023-05-02T15:19:40;10.90;;;3.25;;
24161;SDS011;12318;51.262;7.066;2023-05-02T15:22:06;7.45;;;2.83;;
24161;SDS011;12318;51.262;7.066;2023-05-02T15:24:32;13.30;;;3.50;;
24161;SDS011;12318;51.262;7.066;2023-05-02T15:26:58;8.65;;;3.22;;
24161;SDS011;12318;51.262;7.066;2023-05-02T15:29:27;9.75;;;3.30;;
24161;SDS011;12318;51.262;7.066;2023-05-02T15:31:52;8.30;;;3.22;;
24161;SDS011;12318;51.262;7.066;2023-05-02T15:34:21;6.30;;;2.88;;
24161;SDS011;12318;51.262;7.066;2023-05-02T15:37:20;13.93;;;3.15;;
24161;SDS011;12318;51.262;7.066;2023-05-02T15:42:57;11.75;;;3.15;;
24161;SDS011;12318;51.262;7.066;2023-05-02T15:45:33;9.15;;;3.25;;
24161;SDS011;12318;51.262;7.066;2023-05-02T15:48:31;8.48;;;3.20;;
24161;SDS011;12318;51.262;7.066;2023-05-02T15:51:12;9.75;;;3.30;;
24161;SDS011;12318;51.262;7.066;2023-05-02T15:56:33;8.65;;;3.47;;
24161;SDS011;12318;51.262;7.066;2023-05-02T15:59:18;11.80;;;3.42;;